sensor_id;sensor_type;location;lat;lon;timestamp;pressure;altitude;pressure_sealevel;temperature;humidity
45255;BME280;30989;52.078;21.014;2024-02-14T00:01:39;164828.13;;;4.11;100.00
45255;BME280;30989;52.078;21.014;2024-02-14T00:04:05;164801.44;;;4.01;100.00
45255;BME280;30989;52.078;21.014;2024-02-14T00:06:36;164813.44;;;4.06;100.00
45255;BME280;30989;52.078;21.014;2024-02-14T00:09:02;164828.13;;;4.11;100.00
45255;BME280;30989;52.078;21.014;2024-02-14T00:11:28;164817.44;;;4.07;100.00
45255;BME280;30989;52.078;21.014;2024-02-14T00:13:53;164826.78;;;4.11;100.00
45255;BME280;30989;52.078;21.014;2024-02-14T00:16:21;164808.13;;;4.04;100.00
45255;BME280;30989;52.078;21.014;2024-02-14T00:18:46;164814.78;;;4.06;100.00
45255;BME280;30989;52.078;21.014;2024-02-14T00:21:12;164801.44;;;4.01;100.00
45255;BME280;30989;52.078;21.014;2024-02-14T00:23:38;164809.44;;;4.04;100.00
45255;BME280;30989;52.078;21.014;2024-02-14T00:26:03;164798.78;;;4.00;100.00
45255;BME280;30989;52.078;21.014;2024-02-14T00:28:29;164806.78;;;4.03;100.00
45255;BME280;30989;52.078;21.014;2024-02-14T00:30:54;164796.09;;;3.99;100.00
45255;BME280;30989;52.078;21.014;2024-02-14T00:33:20;164788.09;;;3.96;100.00
45255;BME280;30989;52.078;21.014;2024-02-14T00:35:47;164798.78;;;4.00;100.00
45255;BME280;30989;52.078;21.014;2024-02-14T00:38:12;164796.09;;;3.99;100.00
45255;BME280;30989;52.078;21.014;2024-02-14T00:40:38;164788.09;;;3.96;100.00
45255;BME280;30989;52.078;21.014;2024-02-14T00:43:03;164773.44;;;3.91;100.00
45255;BME280;30989;52.078;21.014;2024-02-14T00:45:29;164780.09;;;3.93;100.00
45255;BME280;30989;52.078;21.014;2024-02-14T00:47:54;164765.44;;;3.87;100.00
45255;BME280;30989;52.078;21.014;2024-02-14T00:50:20;164753.44;;;3.83;100.00
45255;BME280;30989;52.078;21.014;2024-02-14T00:52:46;164750.78;;;3.82;100.00
45255;BME280;30989;52.078;21.014;2024-02-14T00:55:12;164754.78;;;3.83;100.00
45255;BME280;30989;52.078;21.014;2024-02-14T00:57:37;164741.44;;;3.78;100.00
45255;BME280;30989;52.078;21.014;2024-02-14T01:00:04;164737.44;;;3.77;100.00
45255;BME280;30989;52.078;21.014;2024-02-14T01:02:31;164750.78;;;3.82;100.00
45255;BME280;30989;52.078;21.014;2024-02-14T01:04:57;164746.78;;;3.80;100.00
45255;BME280;30989;52.078;21.014;2024-02-14T01:07:22;164729.44;;;3.74;100.00
45255;BME280;30989;52.078;21.014;2024-02-14T01:09:48;164749.44;;;3.81;100.00
45255;BME280;30989;52.078;21.014;2024-02-14T01:12:14;164746.78;;;3.80;100.00
45255;BME280;30989;52.078;21.014;2024-02-14T01:14:40;164749.44;;;3.81;100.00
45255;BME280;30989;52.078;21.014;2024-02-14T01:17:05;164748.09;;;3.81;100.00
45255;BME280;30989;52.078;21.014;2024-02-14T01:19:30;164745.44;;;3.80;100.00
45255;BME280;30989;52.078;21.014;2024-02-14T01:21:56;164750.78;;;3.82;100.00
45255;BME280;30989;52.078;21.014;2024-02-14T01:24:22;164738.78;;;3.77;100.00
45255;BME280;30989;52.078;21.014;2024-02-14T01:26:48;164749.44;;;3.81;100.00
45255;BME280;30989;52.078;21.014;2024-02-14T01:29:16;164730.78;;;3.74;100.00
45255;BME280;30989;52.078;21.014;2024-02-14T01:31:42;164738.78;;;3.77;100.00
45255;BME280;30989;52.078;21.014;2024-02-14T01:34:07;164738.78;;;3.77;100.00
45255;BME280;30989;52.078;21.014;2024-02-14T01:36:33;164730.78;;;3.74;100.00
45255;BME280;30989;52.078;21.014;2024-02-14T01:38:58;164705.44;;;3.65;100.00
45255;BME280;30989;52.078;21.014;2024-02-14T01:41:24;164694.78;;;3.61;100.00
45255;BME280;30989;52.078;21.014;2024-02-14T01:43:49;164657.47;;;3.46;100.00
45255;BME280;30989;52.078;21.014;2024-02-14T01:46:15;164654.78;;;3.45;100.00
45255;BME280;30989;52.078;21.014;2024-02-14T01:48:41;164633.47;;;3.37;100.00
45255;BME280;30989;52.078;21.014;2024-02-14T01:51:09;164617.47;;;3.31;100.00
45255;BME280;30989;52.078;21.014;2024-02-14T01:53:37;164590.81;;;3.21;100.00
45255;BME280;30989;52.078;21.014;2024-02-14T01:56:04;164573.50;;;3.14;100.00
45255;BME280;30989;52.078;21.014;2024-02-14T01:58:30;164565.50;;;3.11;100.00
45255;BME280;30989;52.078;21.014;2024-02-14T02:00:56;164549.50;;;3.05;100.00
45255;BME280;30989;52.078;21.014;2024-02-14T02:03:25;164533.50;;;2.99;100.00
45255;BME280;30989;52.078;21.014;2024-02-14T02:05:55;164505.53;;;2.88;100.00
45255;BME280;30989;52.078;21.014;2024-02-14T02:08:21;164478.88;;;2.78;100.00
45255;BME280;30989;52.078;21.014;2024-02-14T02:10:46;164476.22;;;2.77;100.00
45255;BME280;30989;52.078;21.014;2024-02-14T02:13:12;164457.56;;;2.70;100.00
45255;BME280;30989;52.078;21.014;2024-02-14T02:15:38;164438.91;;;2.63;100.00
45255;BME280;30989;52.078;21.014;2024-02-14T02:18:03;164400.28;;;2.48;100.00
45255;BME280;30989;52.078;21.014;2024-02-14T02:20:34;164406.94;;;2.51;100.00
45255;BME280;30989;52.078;21.014;2024-02-14T02:22:59;164389.63;;;2.44;100.00
45255;BME280;30989;52.078;21.014;2024-02-14T02:25:25;164374.97;;;2.39;100.00
45255;BME280;30989;52.078;21.014;2024-02-14T02:27:54;164361.66;;;2.34;100.00
45255;BME280;30989;52.078;21.014;2024-02-14T02:30:23;164352.34;;;2.30;100.00
45255;BME280;30989;52.078;21.014;2024-02-14T02:32:49;164343.00;;;2.26;100.00
45255;BME280;30989;52.078;21.014;2024-02-14T02:35:17;164331.03;;;2.22;100.00
45255;BME280;30989;52.078;21.014;2024-02-14T02:37:42;164317.72;;;2.17;100.00
45255;BME280;30989;52.078;21.014;2024-02-14T02:40:10;164305.72;;;2.12;100.00
45255;BME280;30989;52.078;21.014;2024-02-14T02:42:38;164291.06;;;2.07;100.00
45255;BME280;30989;52.078;21.014;2024-02-14T02:45:03;164281.75;;;2.03;100.00
45255;BME280;30989;52.078;21.014;2024-02-14T02:47:31;164273.75;;;2.00;100.00
45255;BME280;30989;52.078;21.014;2024-02-14T02:49:57;164265.78;;;1.97;100.00
45255;BME280;30989;52.078;21.014;2024-02-14T02:52:28;164244.47;;;1.89;100.00
45255;BME280;30989;52.078;21.014;2024-02-14T02:54:55;164233.81;;;1.85;100.00
45255;BME280;30989;52.078;21.014;2024-02-14T02:57:21;164225.81;;;1.82;100.00
45255;BME280;30989;52.078;21.014;2024-02-14T02:59:46;164223.16;;;1.81;100.00
45255;BME280;30989;52.078;21.014;2024-02-14T03:02:14;164217.84;;;1.79;100.00
45255;BME280;30989;52.078;21.014;2024-02-14T03:04:40;164211.19;;;1.76;100.00
45255;BME280;30989;52.078;21.014;2024-02-14T03:07:05;164204.53;;;1.74;100.00
45255;BME280;30989;52.078;21.014;2024-02-14T03:09:36;164201.84;;;1.73;100.00
45255;BME280;30989;52.078;21.014;2024-02-14T03:12:03;164188.56;;;1.68;100.00
45255;BME280;30989;52.078;21.014;2024-02-14T03:14:30;164181.91;;;1.65;100.00
45255;BME280;30989;52.078;21.014;2024-02-14T03:17:01;164169.91;;;1.60;100.00
45255;BME280;30989;52.078;21.014;2024-02-14T03:19:28;164159.25;;;1.56;100.00
45255;BME280;30989;52.078;21.014;2024-02-14T03:21:57;164148.63;;;1.52;100.00
45255;BME280;30989;52.078;21.014;2024-02-14T03:24:23;164137.97;;;1.48;100.00
45255;BME280;30989;52.078;21.014;2024-02-14T03:26:51;164132.63;;;1.46;100.00
45255;BME280;30989;52.078;21.014;2024-02-14T03:29:19;164124.66;;;1.43;100.00
45255;BME280;30989;52.078;21.014;2024-02-14T03:31:46;164107.34;;;1.37;100.00
45255;BME280;30989;52.078;21.014;2024-02-14T03:34:11;164111.34;;;1.38;100.00
45255;BME280;30989;52.078;21.014;2024-02-14T03:36:37;164111.34;;;1.38;100.00
45255;BME280;30989;52.078;21.014;2024-02-14T03:39:03;164111.34;;;1.38;100.00
45255;BME280;30989;52.078;21.014;2024-02-14T03:41:31;164114.00;;;1.39;100.00
45255;BME280;30989;52.078;21.014;2024-02-14T03:43:56;164111.34;;;1.38;100.00
45255;BME280;30989;52.078;21.014;2024-02-14T03:46:29;164090.03;;;1.30;100.00
45255;BME280;30989;52.078;21.014;2024-02-14T03:48:55;164098.03;;;1.33;100.00
45255;BME280;30989;52.078;21.014;2024-02-14T03:51:23;164095.38;;;1.32;100.00
45255;BME280;30989;52.078;21.014;2024-02-14T03:53:49;164094.03;;;1.32;100.00
45255;BME280;30989;52.078;21.014;2024-02-14T03:56:15;164091.38;;;1.31;100.00
45255;BME280;30989;52.078;21.014;2024-02-14T03:58:41;164071.41;;;1.23;100.00
45255;BME280;30989;52.078;21.014;2024-02-14T04:01:07;164067.44;;;1.21;100.00
45255;BME280;30989;52.078;21.014;2024-02-14T04:03:33;164068.75;;;1.22;100.00
45255;BME280;30989;52.078;21.014;2024-02-14T04:05:58;164063.44;;;1.20;100.00
45255;BME280;30989;52.078;21.014;2024-02-14T04:08:24;164042.13;;;1.12;100.00
45255;BME280;30989;52.078;21.014;2024-02-14T04:10:49;164039.47;;;1.11;100.00
45255;BME280;30989;52.078;21.014;2024-02-14T04:13:16;164023.50;;;1.05;100.00
45255;BME280;30989;52.078;21.014;2024-02-14T04:15:42;164014.19;;;1.01;100.00
45255;BME280;30989;52.078;21.014;2024-02-14T04:18:12;163998.22;;;0.95;100.00
45255;BME280;30989;52.078;21.014;2024-02-14T04:20:37;163983.59;;;0.89;100.00
45255;BME280;30989;52.078;21.014;2024-02-14T04:23:03;164012.88;;;1.01;100.00
45255;BME280;30989;52.078;21.014;2024-02-14T04:25:31;164015.53;;;1.02;100.00
45255;BME280;30989;52.078;21.014;2024-02-14T04:27:56;163991.56;;;0.92;100.00
45255;BME280;30989;52.078;21.014;2024-02-14T04:30:22;164026.16;;;1.06;100.00
45255;BME280;30989;52.078;21.014;2024-02-14T04:32:48;164030.16;;;1.07;100.00
45255;BME280;30989;52.078;21.014;2024-02-14T04:35:14;164044.81;;;1.13;100.00
45255;BME280;30989;52.078;21.014;2024-02-14T04:37:39;164052.78;;;1.16;100.00
45255;BME280;30989;52.078;21.014;2024-02-14T04:40:08;164068.75;;;1.22;100.00
45255;BME280;30989;52.078;21.014;2024-02-14T04:42:35;164078.06;;;1.25;100.00
45255;BME280;30989;52.078;21.014;2024-02-14T04:45:00;164087.38;;;1.29;100.00
45255;BME280;30989;52.078;21.014;2024-02-14T04:47:26;164095.38;;;1.32;100.00
45255;BME280;30989;52.078;21.014;2024-02-14T04:49:52;164103.34;;;1.35;100.00
45255;BME280;30989;52.078;21.014;2024-02-14T04:52:18;164102.03;;;1.35;100.00
45255;BME280;30989;52.078;21.014;2024-02-14T04:54:43;164116.66;;;1.40;100.00
45255;BME280;30989;52.078;21.014;2024-02-14T04:57:09;164122.00;;;1.42;100.00
45255;BME280;30989;52.078;21.014;2024-02-14T04:59:34;164096.72;;;1.33;100.00
45255;BME280;30989;52.078;21.014;2024-02-14T05:02:00;164127.31;;;1.44;100.00
45255;BME280;30989;52.078;21.014;2024-02-14T05:04:25;164129.97;;;1.45;100.00
45255;BME280;30989;52.078;21.014;2024-02-14T05:06:51;164133.97;;;1.47;100.00
45255;BME280;30989;52.078;21.014;2024-02-14T05:09:17;164135.31;;;1.47;100.00
45255;BME280;30989;52.078;21.014;2024-02-14T05:11:43;164129.97;;;1.45;100.00
45255;BME280;30989;52.078;21.014;2024-02-14T05:14:08;164137.97;;;1.48;100.00
45255;BME280;30989;52.078;21.014;2024-02-14T05:16:34;164135.31;;;1.47;100.00
45255;BME280;30989;52.078;21.014;2024-02-14T05:18:59;164135.31;;;1.47;100.00
45255;BME280;30989;52.078;21.014;2024-02-14T05:21:26;164131.31;;;1.46;100.00
45255;BME280;30989;52.078;21.014;2024-02-14T05:23:52;164132.63;;;1.46;100.00
45255;BME280;30989;52.078;21.014;2024-02-14T05:26:17;164129.97;;;1.45;100.00
45255;BME280;30989;52.078;21.014;2024-02-14T05:28:43;164122.00;;;1.42;100.00
45255;BME280;30989;52.078;21.014;2024-02-14T05:31:08;164106.03;;;1.36;100.00
45255;BME280;30989;52.078;21.014;2024-02-14T05:33:34;164108.69;;;1.37;100.00
45255;BME280;30989;52.078;21.014;2024-02-14T05:35:59;164091.38;;;1.31;100.00
45255;BME280;30989;52.078;21.014;2024-02-14T05:38:25;164074.06;;;1.24;100.00
45255;BME280;30989;52.078;21.014;2024-02-14T05:40:50;164063.44;;;1.20;100.00
45255;BME280;30989;52.078;21.014;2024-02-14T05:43:16;164051.44;;;1.15;100.00
45255;BME280;30989;52.078;21.014;2024-02-14T05:45:43;164043.47;;;1.12;100.00
45255;BME280;30989;52.078;21.014;2024-02-14T05:48:09;164006.22;;;0.98;100.00
45255;BME280;30989;52.078;21.014;2024-02-14T05:50:34;164020.84;;;1.04;100.00
45255;BME280;30989;52.078;21.014;2024-02-14T05:53:00;164012.88;;;1.01;100.00
45255;BME280;30989;52.078;21.014;2024-02-14T05:55:26;164012.88;;;1.01;100.00
45255;BME280;30989;52.078;21.014;2024-02-14T05:57:52;164012.88;;;1.01;100.00
45255;BME280;30989;52.078;21.014;2024-02-14T06:00:22;164002.22;;;0.96;100.00
45255;BME280;30989;52.078;21.014;2024-02-14T06:02:48;163976.94;;;0.87;100.00
45255;BME280;30989;52.078;21.014;2024-02-14T06:05:14;164011.53;;;1.00;100.00
45255;BME280;30989;52.078;21.014;2024-02-14T06:07:40;164010.19;;;1.00;100.00
45255;BME280;30989;52.078;21.014;2024-02-14T06:10:07;164006.22;;;0.98;100.00
45255;BME280;30989;52.078;21.014;2024-02-14T06:12:33;163994.25;;;0.93;100.00
45255;BME280;30989;52.078;21.014;2024-02-14T06:14:59;163996.91;;;0.94;100.00
45255;BME280;30989;52.078;21.014;2024-02-14T06:17:24;164002.22;;;0.96;100.00
45255;BME280;30989;52.078;21.014;2024-02-14T06:19:52;164003.56;;;0.97;100.00
45255;BME280;30989;52.078;21.014;2024-02-14T06:22:17;163994.25;;;0.93;100.00
45255;BME280;30989;52.078;21.014;2024-02-14T06:24:43;163999.56;;;0.95;100.00
45255;BME280;30989;52.078;21.014;2024-02-14T06:27:08;164002.22;;;0.96;100.00
45255;BME280;30989;52.078;21.014;2024-02-14T06:29:34;164002.22;;;0.96;100.00
45255;BME280;30989;52.078;21.014;2024-02-14T06:31:59;164002.22;;;0.96;100.00
45255;BME280;30989;52.078;21.014;2024-02-14T06:34:25;164002.22;;;0.96;100.00
45255;BME280;30989;52.078;21.014;2024-02-14T06:36:52;164011.53;;;1.00;100.00
45255;BME280;30989;52.078;21.014;2024-02-14T06:39:18;164007.53;;;0.99;100.00
45255;BME280;30989;52.078;21.014;2024-02-14T06:41:44;164015.53;;;1.02;100.00
45255;BME280;30989;52.078;21.014;2024-02-14T06:44:10;164030.16;;;1.07;100.00
45255;BME280;30989;52.078;21.014;2024-02-14T06:46:36;164036.81;;;1.10;100.00
45255;BME280;30989;52.078;21.014;2024-02-14T06:49:03;164043.47;;;1.12;100.00
45255;BME280;30989;52.078;21.014;2024-02-14T06:51:28;164047.47;;;1.14;100.00
45255;BME280;30989;52.078;21.014;2024-02-14T06:53:56;164063.44;;;1.20;100.00
45255;BME280;30989;52.078;21.014;2024-02-14T06:56:21;164058.09;;;1.18;100.00
45255;BME280;30989;52.078;21.014;2024-02-14T06:58:47;164078.06;;;1.25;100.00
45255;BME280;30989;52.078;21.014;2024-02-14T07:01:18;164090.03;;;1.30;100.00
45255;BME280;30989;52.078;21.014;2024-02-14T07:03:47;164103.34;;;1.35;100.00
45255;BME280;30989;52.078;21.014;2024-02-14T07:06:13;164110.00;;;1.38;100.00
45255;BME280;30989;52.078;21.014;2024-02-14T07:08:42;164122.00;;;1.42;100.00
45255;BME280;30989;52.078;21.014;2024-02-14T07:11:07;164133.97;;;1.47;100.00
45255;BME280;30989;52.078;21.014;2024-02-14T07:13:33;164143.28;;;1.50;100.00
45255;BME280;30989;52.078;21.014;2024-02-14T07:15:58;164145.94;;;1.51;100.00
45255;BME280;30989;52.078;21.014;2024-02-14T07:18:24;164175.25;;;1.63;100.00
45255;BME280;30989;52.078;21.014;2024-02-14T07:20:49;164191.22;;;1.69;100.00
45255;BME280;30989;52.078;21.014;2024-02-14T07:23:16;164209.84;;;1.76;100.00
45255;BME280;30989;52.078;21.014;2024-02-14T07:25:41;164229.81;;;1.83;100.00
45255;BME280;30989;52.078;21.014;2024-02-14T07:28:07;164247.13;;;1.90;100.00
45255;BME280;30989;52.078;21.014;2024-02-14T07:30:32;164264.44;;;1.97;100.00
45255;BME280;30989;52.078;21.014;2024-02-14T07:32:58;164287.06;;;2.05;100.00
45255;BME280;30989;52.078;21.014;2024-02-14T07:35:23;164307.06;;;2.13;100.00
45255;BME280;30989;52.078;21.014;2024-02-14T07:37:49;164327.03;;;2.20;100.00
45255;BME280;30989;52.078;21.014;2024-02-14T07:40:15;164343.00;;;2.26;100.00
45255;BME280;30989;52.078;21.014;2024-02-14T07:42:40;164374.97;;;2.39;100.00
45255;BME280;30989;52.078;21.014;2024-02-14T07:45:06;164393.63;;;2.46;100.00
45255;BME280;30989;52.078;21.014;2024-02-14T07:47:32;164401.63;;;2.49;100.00
45255;BME280;30989;52.078;21.014;2024-02-14T07:49:57;164432.25;;;2.61;100.00
45255;BME280;30989;52.078;21.014;2024-02-14T07:52:23;164462.91;;;2.72;100.00
45255;BME280;30989;52.078;21.014;2024-02-14T07:54:52;164490.88;;;2.83;100.00
45255;BME280;30989;52.078;21.014;2024-02-14T07:57:19;164513.53;;;2.91;100.00
45255;BME280;30989;52.078;21.014;2024-02-14T07:59:44;164549.50;;;3.05;100.00
45255;BME280;30989;52.078;21.014;2024-02-14T08:02:10;164576.16;;;3.15;100.00
45255;BME280;30989;52.078;21.014;2024-02-14T08:04:35;164604.13;;;3.26;100.00
45255;BME280;30989;52.078;21.014;2024-02-14T08:07:01;164622.81;;;3.33;100.00
45255;BME280;30989;52.078;21.014;2024-02-14T08:09:26;164657.47;;;3.46;100.00
45255;BME280;30989;52.078;21.014;2024-02-14T08:11:52;164685.44;;;3.57;100.00
45255;BME280;30989;52.078;21.014;2024-02-14T08:14:18;164716.09;;;3.69;100.00
45255;BME280;30989;52.078;21.014;2024-02-14T08:16:44;164748.09;;;3.81;100.00
45255;BME280;30989;52.078;21.014;2024-02-14T08:19:09;164777.44;;;3.92;100.00
45255;BME280;30989;52.078;21.014;2024-02-14T08:21:35;164809.44;;;4.04;100.00
45255;BME280;30989;52.078;21.014;2024-02-14T08:24:01;164836.13;;;4.14;100.00
45255;BME280;30989;52.078;21.014;2024-02-14T08:26:27;164856.13;;;4.22;100.00
45255;BME280;30989;52.078;21.014;2024-02-14T08:28:53;164877.47;;;4.30;100.00
45255;BME280;30989;52.078;21.014;2024-02-14T08:31:20;164910.81;;;4.43;100.00
45255;BME280;30989;52.078;21.014;2024-02-14T08:33:45;164930.81;;;4.50;100.00
45255;BME280;30989;52.078;21.014;2024-02-14T08:36:11;164969.50;;;4.65;100.00
45255;BME280;30989;52.078;21.014;2024-02-14T08:38:36;165014.84;;;4.82;100.00
45255;BME280;30989;52.078;21.014;2024-02-14T08:41:02;165041.53;;;4.93;100.00
45255;BME280;30989;52.078;21.014;2024-02-14T08:43:28;165054.88;;;4.98;100.00
45255;BME280;30989;52.078;21.014;2024-02-14T08:45:54;165065.56;;;5.02;100.00
45255;BME280;30989;52.078;21.014;2024-02-14T08:48:20;165089.59;;;5.11;100.00
45255;BME280;30989;52.078;21.014;2024-02-14T08:50:46;165131.00;;;5.27;100.00
45255;BME280;30989;52.078;21.014;2024-02-14T08:53:12;165143.03;;;5.31;100.00
45255;BME280;30989;52.078;21.014;2024-02-14T08:55:39;165164.38;;;5.39;100.00
45255;BME280;30989;52.078;21.014;2024-02-14T08:58:05;165177.72;;;5.44;100.00
45255;BME280;30989;52.078;21.014;2024-02-14T09:00:31;165207.09;;;5.56;100.00
45255;BME280;30989;52.078;21.014;2024-02-14T09:02:56;165215.09;;;5.59;100.00
45255;BME280;30989;52.078;21.014;2024-02-14T09:05:25;165232.44;;;5.65;100.00
45255;BME280;30989;52.078;21.014;2024-02-14T09:07:51;165255.16;;;5.74;100.00
45255;BME280;30989;52.078;21.014;2024-02-14T09:10:17;165284.53;;;5.85;100.00
45255;BME280;30989;52.078;21.014;2024-02-14T09:12:42;165309.94;;;5.95;100.00
45255;BME280;30989;52.078;21.014;2024-02-14T09:15:09;165332.66;;;6.03;100.00
45255;BME280;30989;52.078;21.014;2024-02-14T09:17:34;165340.66;;;6.06;100.00
45255;BME280;30989;52.078;21.014;2024-02-14T09:20:00;165384.72;;;6.23;100.00
45255;BME280;30989;52.078;21.014;2024-02-14T09:22:26;165394.06;;;6.27;100.00
45255;BME280;30989;52.078;21.014;2024-02-14T09:24:51;165399.41;;;6.29;100.00
45255;BME280;30989;52.078;21.014;2024-02-14T09:27:17;165402.09;;;6.30;100.00
45255;BME280;30989;52.078;21.014;2024-02-14T09:29:43;165406.09;;;6.31;100.00
45255;BME280;30989;52.078;21.014;2024-02-14T09:32:08;165419.44;;;6.36;100.00
45255;BME280;30989;52.078;21.014;2024-02-14T09:34:34;165424.78;;;6.38;100.00
45255;BME280;30989;52.078;21.014;2024-02-14T09:37:00;165438.16;;;6.43;100.00
45255;BME280;30989;52.078;21.014;2024-02-14T09:39:25;165454.19;;;6.50;100.00
45255;BME280;30989;52.078;21.014;2024-02-14T09:41:52;165479.56;;;6.59;100.00
45255;BME280;30989;52.078;21.014;2024-02-14T09:44:20;165478.22;;;6.59;100.00
45255;BME280;30989;52.078;21.014;2024-02-14T09:46:49;165500.94;;;6.67;100.00
45255;BME280;30989;52.078;21.014;2024-02-14T09:49:16;165510.28;;;6.71;100.00
45255;BME280;30989;52.078;21.014;2024-02-14T09:51:44;165524.97;;;6.76;100.00
45255;BME280;30989;52.078;21.014;2024-02-14T09:54:10;165538.34;;;6.82;100.00
45255;BME280;30989;52.078;21.014;2024-02-14T09:56:36;165541.00;;;6.83;100.00
45255;BME280;30989;52.078;21.014;2024-02-14T09:59:02;165562.38;;;6.91;100.00
45255;BME280;30989;52.078;21.014;2024-02-14T10:01:28;165557.03;;;6.89;99.89
45255;BME280;30989;52.078;21.014;2024-02-14T10:03:54;165581.09;;;6.98;100.00
45255;BME280;30989;52.078;21.014;2024-02-14T10:06:20;165602.47;;;7.06;100.00
45255;BME280;30989;52.078;21.014;2024-02-14T10:08:47;165626.53;;;7.15;100.00
45255;BME280;30989;52.078;21.014;2024-02-14T10:11:14;165631.88;;;7.17;100.00
45255;BME280;30989;52.078;21.014;2024-02-14T10:13:41;165662.63;;;7.29;98.28
45255;BME280;30989;52.078;21.014;2024-02-14T10:16:07;165680.00;;;7.35;98.12
45255;BME280;30989;52.078;21.014;2024-02-14T10:18:35;165685.34;;;7.37;93.27
45255;BME280;30989;52.078;21.014;2024-02-14T10:21:00;165704.06;;;7.44;98.66
45255;BME280;30989;52.078;21.014;2024-02-14T10:23:27;165712.06;;;7.48;97.01
45255;BME280;30989;52.078;21.014;2024-02-14T10:25:53;165752.16;;;7.63;94.04
45255;BME280;30989;52.078;21.014;2024-02-14T10:28:21;165782.91;;;7.74;99.73
45255;BME280;30989;52.078;21.014;2024-02-14T10:30:47;165821.69;;;7.89;99.15
45255;BME280;30989;52.078;21.014;2024-02-14T10:33:15;165848.44;;;7.99;98.00
45255;BME280;30989;52.078;21.014;2024-02-14T10:35:42;165871.16;;;8.08;99.58
45255;BME280;30989;52.078;21.014;2024-02-14T10:38:09;165960.81;;;8.42;99.33
45255;BME280;30989;52.078;21.014;2024-02-14T10:40:38;166051.78;;;8.77;97.72
45255;BME280;30989;52.078;21.014;2024-02-14T10:43:07;166144.09;;;9.12;95.81
45255;BME280;30989;52.078;21.014;2024-02-14T10:45:36;166288.63;;;9.66;92.35
45255;BME280;30989;52.078;21.014;2024-02-14T10:48:05;166418.50;;;10.16;95.50
45255;BME280;30989;52.078;21.014;2024-02-14T10:50:36;166506.97;;;10.49;82.44
45255;BME280;30989;52.078;21.014;2024-02-14T10:53:09;166461.38;;;10.32;77.88
45255;BME280;30989;52.078;21.014;2024-02-14T10:55:39;166336.81;;;9.85;84.14
45255;BME280;30989;52.078;21.014;2024-02-14T10:58:06;166260.50;;;9.56;86.96
45255;BME280;30989;52.078;21.014;2024-02-14T11:00:33;166259.19;;;9.55;91.32
45255;BME280;30989;52.078;21.014;2024-02-14T11:02:59;166362.25;;;9.94;89.50
45255;BME280;30989;52.078;21.014;2024-02-14T11:05:26;166391.72;;;10.06;86.59
45255;BME280;30989;52.078;21.014;2024-02-14T11:07:51;166351.53;;;9.90;85.10
45255;BME280;30989;52.078;21.014;2024-02-14T11:10:21;166269.88;;;9.59;86.86
45255;BME280;30989;52.078;21.014;2024-02-14T11:12:48;166237.75;;;9.47;87.05
45255;BME280;30989;52.078;21.014;2024-02-14T11:15:23;166312.72;;;9.76;86.57
45255;BME280;30989;52.078;21.014;2024-02-14T11:18:04;166445.31;;;10.26;89.75
45255;BME280;30989;52.078;21.014;2024-02-14T11:20:36;166590.00;;;10.81;79.59
45255;BME280;30989;52.078;21.014;2024-02-14T11:23:03;166714.59;;;11.28;82.91
45255;BME280;30989;52.078;21.014;2024-02-14T11:25:31;166760.16;;;11.45;80.26
45255;BME280;30989;52.078;21.014;2024-02-14T11:28:24;166808.41;;;11.63;83.16
45255;BME280;30989;52.078;21.014;2024-02-14T11:30:46;166950.56;;;12.17;73.74
45255;BME280;30989;52.078;21.014;2024-02-14T11:35:54;167051.09;;;12.55;71.16
45255;BME280;30989;52.078;21.014;2024-02-14T11:38:21;167103.41;;;12.75;76.13
45255;BME280;30989;52.078;21.014;2024-02-14T11:40:47;167249.69;;;13.31;77.54
45255;BME280;30989;52.078;21.014;2024-02-14T11:43:18;167324.81;;;13.59;64.76
45255;BME280;30989;52.078;21.014;2024-02-14T11:45:44;167338.22;;;13.64;63.72
45255;BME280;30989;52.078;21.014;2024-02-14T11:48:12;167387.88;;;13.83;68.22
45255;BME280;30989;52.078;21.014;2024-02-14T11:50:42;167425.47;;;13.97;63.77
45255;BME280;30989;52.078;21.014;2024-02-14T11:53:12;167477.81;;;14.17;66.26
45255;BME280;30989;52.078;21.014;2024-02-14T11:55:39;167477.81;;;14.17;64.01
45255;BME280;30989;52.078;21.014;2024-02-14T11:58:12;167424.13;;;13.97;62.13
45255;BME280;30989;52.078;21.014;2024-02-14T12:00:39;167308.72;;;13.53;59.76
45255;BME280;30989;52.078;21.014;2024-02-14T12:03:12;167228.22;;;13.22;59.72
45255;BME280;30989;52.078;21.014;2024-02-14T12:05:38;167195.97;;;13.10;60.74
45255;BME280;30989;52.078;21.014;2024-02-14T12:08:06;167255.03;;;13.33;66.40
45255;BME280;30989;52.078;21.014;2024-02-14T12:10:32;167332.88;;;13.62;66.14
45255;BME280;30989;52.078;21.014;2024-02-14T12:13:06;167424.13;;;13.97;56.90
45255;BME280;30989;52.078;21.014;2024-02-14T12:15:45;167496.59;;;14.24;64.87
45255;BME280;30989;52.078;21.014;2024-02-14T12:18:11;167582.56;;;14.57;64.29
45255;BME280;30989;52.078;21.014;2024-02-14T12:20:41;167620.16;;;14.71;56.90
45255;BME280;30989;52.078;21.014;2024-02-14T12:23:07;167614.78;;;14.69;61.06
45255;BME280;30989;52.078;21.014;2024-02-14T12:25:33;167512.72;;;14.30;53.96
45255;BME280;30989;52.078;21.014;2024-02-14T12:27:59;167353.00;;;13.70;56.01
45255;BME280;30989;52.078;21.014;2024-02-14T12:30:45;167299.31;;;13.49;59.17
45255;BME280;30989;52.078;21.014;2024-02-14T12:33:11;167257.72;;;13.34;55.27
45255;BME280;30989;52.078;21.014;2024-02-14T12:35:41;167212.13;;;13.16;57.84
45255;BME280;30989;52.078;21.014;2024-02-14T12:38:11;167218.81;;;13.19;57.86
45255;BME280;30989;52.078;21.014;2024-02-14T12:40:37;167228.22;;;13.22;58.70